sensor_id;sensor_type;location;lat;lon;timestamp;temperature;humidity
33994;DHT22;20673;48.980;8.138;2023-10-31T00:01:52;12.00;99.90
33994;DHT22;20673;48.980;8.138;2023-10-31T00:04:19;12.00;99.90
33994;DHT22;20673;48.980;8.138;2023-10-31T00:06:45;11.90;99.90
33994;DHT22;20673;48.980;8.138;2023-10-31T00:09:12;11.90;99.90
33994;DHT22;20673;48.980;8.138;2023-10-31T00:11:43;11.80;99.90
33994;DHT22;20673;48.980;8.138;2023-10-31T00:14:09;11.70;99.90
33994;DHT22;20673;48.980;8.138;2023-10-31T00:16:35;11.80;99.90
33994;DHT22;20673;48.980;8.138;2023-10-31T00:19:02;11.70;99.90
33994;DHT22;20673;48.980;8.138;2023-10-31T00:21:28;11.70;99.90
33994;DHT22;20673;48.980;8.138;2023-10-31T00:23:54;11.60;99.90
33994;DHT22;20673;48.980;8.138;2023-10-31T00:26:20;11.60;99.90
33994;DHT22;20673;48.980;8.138;2023-10-31T00:28:48;11.60;99.90
33994;DHT22;20673;48.980;8.138;2023-10-31T00:31:15;11.50;99.90
33994;DHT22;20673;48.980;8.138;2023-10-31T00:33:41;11.50;99.90
33994;DHT22;20673;48.980;8.138;2023-10-31T00:36:11;11.50;99.90
33994;DHT22;20673;48.980;8.138;2023-10-31T00:38:38;11.40;99.90
33994;DHT22;20673;48.980;8.138;2023-10-31T00:41:04;11.40;99.90
33994;DHT22;20673;48.980;8.138;2023-10-31T00:43:30;11.40;99.90
33994;DHT22;20673;48.980;8.138;2023-10-31T00:45:56;11.40;99.90
33994;DHT22;20673;48.980;8.138;2023-10-31T00:48:22;11.40;99.90
33994;DHT22;20673;48.980;8.138;2023-10-31T00:50:48;11.40;99.90
33994;DHT22;20673;48.980;8.138;2023-10-31T00:53:14;11.40;99.90
33994;DHT22;20673;48.980;8.138;2023-10-31T00:55:42;11.40;99.90
33994;DHT22;20673;48.980;8.138;2023-10-31T00:58:09;11.40;99.90
33994;DHT22;20673;48.980;8.138;2023-10-31T01:00:35;11.40;99.90
33994;DHT22;20673;48.980;8.138;2023-10-31T01:03:03;11.40;99.90
33994;DHT22;20673;48.980;8.138;2023-10-31T01:05:29;11.30;99.90
33994;DHT22;20673;48.980;8.138;2023-10-31T01:07:55;11.30;99.90
33994;DHT22;20673;48.980;8.138;2023-10-31T01:10:21;11.20;99.90
33994;DHT22;20673;48.980;8.138;2023-10-31T01:12:48;11.20;99.90
33994;DHT22;20673;48.980;8.138;2023-10-31T01:15:14;11.20;99.90
33994;DHT22;20673;48.980;8.138;2023-10-31T01:17:40;11.20;99.90
33994;DHT22;20673;48.980;8.138;2023-10-31T01:20:07;11.10;99.90
33994;DHT22;20673;48.980;8.138;2023-10-31T01:22:35;11.20;99.90
33994;DHT22;20673;48.980;8.138;2023-10-31T01:25:01;11.10;99.90
33994;DHT22;20673;48.980;8.138;2023-10-31T01:27:28;11.00;99.90
33994;DHT22;20673;48.980;8.138;2023-10-31T01:29:54;11.00;99.90
33994;DHT22;20673;48.980;8.138;2023-10-31T01:32:20;10.90;99.90
33994;DHT22;20673;48.980;8.138;2023-10-31T01:34:46;10.90;99.90
33994;DHT22;20673;48.980;8.138;2023-10-31T01:37:12;10.90;99.90
33994;DHT22;20673;48.980;8.138;2023-10-31T01:39:40;10.90;99.90
33994;DHT22;20673;48.980;8.138;2023-10-31T01:42:06;10.80;99.90
33994;DHT22;20673;48.980;8.138;2023-10-31T01:44:33;10.80;99.90
33994;DHT22;20673;48.980;8.138;2023-10-31T01:46:59;10.80;99.90
33994;DHT22;20673;48.980;8.138;2023-10-31T01:49:25;10.80;99.90
33994;DHT22;20673;48.980;8.138;2023-10-31T01:51:51;10.80;99.90
33994;DHT22;20673;48.980;8.138;2023-10-31T01:54:17;10.80;99.90
33994;DHT22;20673;48.980;8.138;2023-10-31T01:56:44;10.70;99.90
33994;DHT22;20673;48.980;8.138;2023-10-31T01:59:11;10.60;99.90
33994;DHT22;20673;48.980;8.138;2023-10-31T02:01:38;10.60;99.90
33994;DHT22;20673;48.980;8.138;2023-10-31T02:04:06;10.60;99.90
33994;DHT22;20673;48.980;8.138;2023-10-31T02:06:32;10.60;99.90
33994;DHT22;20673;48.980;8.138;2023-10-31T02:08:58;10.60;99.90
33994;DHT22;20673;48.980;8.138;2023-10-31T02:11:48;10.60;99.90
33994;DHT22;20673;48.980;8.138;2023-10-31T02:14:14;10.60;99.90
33994;DHT22;20673;48.980;8.138;2023-10-31T02:16:40;10.70;99.90
33994;DHT22;20673;48.980;8.138;2023-10-31T02:19:07;10.70;99.90
33994;DHT22;20673;48.980;8.138;2023-10-31T02:21:33;10.80;99.90
33994;DHT22;20673;48.980;8.138;2023-10-31T02:24:02;10.70;99.90
33994;DHT22;20673;48.980;8.138;2023-10-31T02:26:33;10.80;99.90
33994;DHT22;20673;48.980;8.138;2023-10-31T02:29:01;10.80;99.90
33994;DHT22;20673;48.980;8.138;2023-10-31T02:31:27;10.80;99.90
33994;DHT22;20673;48.980;8.138;2023-10-31T02:33:54;10.70;99.90
33994;DHT22;20673;48.980;8.138;2023-10-31T02:36:20;10.70;99.90
33994;DHT22;20673;48.980;8.138;2023-10-31T02:38:46;10.70;99.90
33994;DHT22;20673;48.980;8.138;2023-10-31T02:41:13;10.70;99.90
33994;DHT22;20673;48.980;8.138;2023-10-31T02:43:40;10.70;99.90
33994;DHT22;20673;48.980;8.138;2023-10-31T02:46:06;10.80;99.90
33994;DHT22;20673;48.980;8.138;2023-10-31T02:48:33;10.80;99.90
33994;DHT22;20673;48.980;8.138;2023-10-31T02:51:01;10.90;99.90
33994;DHT22;20673;48.980;8.138;2023-10-31T02:53:27;10.90;99.90
33994;DHT22;20673;48.980;8.138;2023-10-31T02:55:53;11.00;99.90
33994;DHT22;20673;48.980;8.138;2023-10-31T02:58:19;11.00;99.90
33994;DHT22;20673;48.980;8.138;2023-10-31T03:00:45;10.90;99.90
33994;DHT22;20673;48.980;8.138;2023-10-31T03:03:11;10.90;99.90
33994;DHT22;20673;48.980;8.138;2023-10-31T03:05:37;11.00;99.90
33994;DHT22;20673;48.980;8.138;2023-10-31T03:08:03;11.00;99.90
33994;DHT22;20673;48.980;8.138;2023-10-31T03:10:29;11.00;99.90
33994;DHT22;20673;48.980;8.138;2023-10-31T03:12:55;11.00;99.90
33994;DHT22;20673;48.980;8.138;2023-10-31T03:15:21;11.00;99.90
33994;DHT22;20673;48.980;8.138;2023-10-31T03:17:47;11.00;99.90
33994;DHT22;20673;48.980;8.138;2023-10-31T03:20:14;11.00;99.90
33994;DHT22;20673;48.980;8.138;2023-10-31T03:22:40;11.10;99.90
33994;DHT22;20673;48.980;8.138;2023-10-31T03:25:06;11.10;99.90
33994;DHT22;20673;48.980;8.138;2023-10-31T03:27:33;11.10;99.90
33994;DHT22;20673;48.980;8.138;2023-10-31T03:29:59;11.10;99.90
33994;DHT22;20673;48.980;8.138;2023-10-31T03:32:25;11.10;99.90
33994;DHT22;20673;48.980;8.138;2023-10-31T03:34:51;11.10;99.90
33994;DHT22;20673;48.980;8.138;2023-10-31T03:37:17;11.20;99.90
33994;DHT22;20673;48.980;8.138;2023-10-31T03:39:43;11.20;99.90
33994;DHT22;20673;48.980;8.138;2023-10-31T03:42:09;11.20;99.90
33994;DHT22;20673;48.980;8.138;2023-10-31T03:44:35;11.20;99.90
33994;DHT22;20673;48.980;8.138;2023-10-31T03:47:01;11.20;99.90
33994;DHT22;20673;48.980;8.138;2023-10-31T03:49:27;11.20;99.90
33994;DHT22;20673;48.980;8.138;2023-10-31T03:51:53;11.10;99.90
33994;DHT22;20673;48.980;8.138;2023-10-31T03:54:20;11.20;99.90
33994;DHT22;20673;48.980;8.138;2023-10-31T03:56:46;11.20;99.90
33994;DHT22;20673;48.980;8.138;2023-10-31T03:59:13;11.10;99.90
33994;DHT22;20673;48.980;8.138;2023-10-31T04:01:39;11.10;99.90
33994;DHT22;20673;48.980;8.138;2023-10-31T04:04:06;11.10;99.90
33994;DHT22;20673;48.980;8.138;2023-10-31T04:06:32;11.10;99.90
33994;DHT22;20673;48.980;8.138;2023-10-31T04:08:58;11.10;99.90
33994;DHT22;20673;48.980;8.138;2023-10-31T04:11:24;11.10;99.90
33994;DHT22;20673;48.980;8.138;2023-10-31T04:13:50;11.20;99.90
33994;DHT22;20673;48.980;8.138;2023-10-31T04:16:16;11.20;99.90
33994;DHT22;20673;48.980;8.138;2023-10-31T04:18:42;11.20;99.90
33994;DHT22;20673;48.980;8.138;2023-10-31T04:21:08;11.20;99.90
33994;DHT22;20673;48.980;8.138;2023-10-31T04:23:34;11.20;99.90
33994;DHT22;20673;48.980;8.138;2023-10-31T04:26:00;11.20;99.90
33994;DHT22;20673;48.980;8.138;2023-10-31T04:28:26;11.20;99.90
33994;DHT22;20673;48.980;8.138;2023-10-31T04:30:52;11.20;99.90
33994;DHT22;20673;48.980;8.138;2023-10-31T04:33:19;11.20;99.90
33994;DHT22;20673;48.980;8.138;2023-10-31T04:35:45;11.20;99.90
33994;DHT22;20673;48.980;8.138;2023-10-31T04:38:11;11.20;99.90
33994;DHT22;20673;48.980;8.138;2023-10-31T04:40:37;11.20;99.90
33994;DHT22;20673;48.980;8.138;2023-10-31T04:43:03;11.20;99.90
33994;DHT22;20673;48.980;8.138;2023-10-31T04:45:29;11.20;99.90
33994;DHT22;20673;48.980;8.138;2023-10-31T04:47:55;11.20;99.90
33994;DHT22;20673;48.980;8.138;2023-10-31T04:50:21;11.20;99.90
33994;DHT22;20673;48.980;8.138;2023-10-31T04:52:47;11.20;99.90
33994;DHT22;20673;48.980;8.138;2023-10-31T04:55:14;11.20;99.90
33994;DHT22;20673;48.980;8.138;2023-10-31T04:57:40;11.20;99.90
33994;DHT22;20673;48.980;8.138;2023-10-31T05:00:07;11.10;99.90
33994;DHT22;20673;48.980;8.138;2023-10-31T05:02:34;11.00;99.90
33994;DHT22;20673;48.980;8.138;2023-10-31T05:05:00;10.90;99.90
33994;DHT22;20673;48.980;8.138;2023-10-31T05:07:26;10.90;99.90
33994;DHT22;20673;48.980;8.138;2023-10-31T05:09:52;10.80;99.90
33994;DHT22;20673;48.980;8.138;2023-10-31T05:12:18;10.90;99.90
33994;DHT22;20673;48.980;8.138;2023-10-31T05:14:44;10.80;99.90
33994;DHT22;20673;48.980;8.138;2023-10-31T05:17:10;10.90;99.90
33994;DHT22;20673;48.980;8.138;2023-10-31T05:19:36;10.90;99.90
33994;DHT22;20673;48.980;8.138;2023-10-31T05:22:02;10.90;99.90
33994;DHT22;20673;48.980;8.138;2023-10-31T05:24:28;10.80;99.90
33994;DHT22;20673;48.980;8.138;2023-10-31T05:26:55;10.90;99.90
33994;DHT22;20673;48.980;8.138;2023-10-31T05:29:22;10.90;99.90
33994;DHT22;20673;48.980;8.138;2023-10-31T05:31:48;10.90;99.90
33994;DHT22;20673;48.980;8.138;2023-10-31T05:34:14;11.00;99.90
33994;DHT22;20673;48.980;8.138;2023-10-31T05:36:40;11.00;99.90
33994;DHT22;20673;48.980;8.138;2023-10-31T05:39:06;11.00;99.90
33994;DHT22;20673;48.980;8.138;2023-10-31T05:41:34;11.00;99.90
33994;DHT22;20673;48.980;8.138;2023-10-31T05:44:01;11.00;99.90
33994;DHT22;20673;48.980;8.138;2023-10-31T05:46:27;11.00;99.90
33994;DHT22;20673;48.980;8.138;2023-10-31T05:48:53;11.00;99.90
33994;DHT22;20673;48.980;8.138;2023-10-31T05:51:19;10.90;99.90
33994;DHT22;20673;48.980;8.138;2023-10-31T05:53:47;11.00;99.90
33994;DHT22;20673;48.980;8.138;2023-10-31T05:56:14;10.90;99.90
33994;DHT22;20673;48.980;8.138;2023-10-31T05:58:42;10.90;99.90
33994;DHT22;20673;48.980;8.138;2023-10-31T06:01:08;10.90;99.90
33994;DHT22;20673;48.980;8.138;2023-10-31T06:03:34;10.90;99.90
33994;DHT22;20673;48.980;8.138;2023-10-31T06:06:01;10.80;99.90
33994;DHT22;20673;48.980;8.138;2023-10-31T06:08:27;10.80;99.90
33994;DHT22;20673;48.980;8.138;2023-10-31T06:10:55;10.80;99.90
33994;DHT22;20673;48.980;8.138;2023-10-31T06:13:23;10.80;99.90
33994;DHT22;20673;48.980;8.138;2023-10-31T06:15:51;10.70;99.90
33994;DHT22;20673;48.980;8.138;2023-10-31T06:18:17;10.70;99.90
33994;DHT22;20673;48.980;8.138;2023-10-31T06:20:44;10.70;99.90
33994;DHT22;20673;48.980;8.138;2023-10-31T06:23:10;10.70;99.90
33994;DHT22;20673;48.980;8.138;2023-10-31T06:25:36;10.70;99.90
33994;DHT22;20673;48.980;8.138;2023-10-31T06:28:03;10.70;99.90
33994;DHT22;20673;48.980;8.138;2023-10-31T06:30:29;10.60;99.90
33994;DHT22;20673;48.980;8.138;2023-10-31T06:32:55;10.70;99.90
33994;DHT22;20673;48.980;8.138;2023-10-31T06:35:22;10.60;99.90
33994;DHT22;20673;48.980;8.138;2023-10-31T06:37:53;10.60;99.90
33994;DHT22;20673;48.980;8.138;2023-10-31T06:40:21;10.50;99.90
33994;DHT22;20673;48.980;8.138;2023-10-31T06:42:47;10.50;99.90
33994;DHT22;20673;48.980;8.138;2023-10-31T06:45:14;10.60;99.90
33994;DHT22;20673;48.980;8.138;2023-10-31T06:47:40;10.60;99.90
33994;DHT22;20673;48.980;8.138;2023-10-31T06:50:08;10.60;99.90
33994;DHT22;20673;48.980;8.138;2023-10-31T06:52:35;10.60;99.90
33994;DHT22;20673;48.980;8.138;2023-10-31T06:55:01;10.70;99.90
33994;DHT22;20673;48.980;8.138;2023-10-31T06:57:28;10.70;99.90
33994;DHT22;20673;48.980;8.138;2023-10-31T06:59:54;10.70;99.90
33994;DHT22;20673;48.980;8.138;2023-10-31T07:02:21;10.70;99.90
33994;DHT22;20673;48.980;8.138;2023-10-31T07:04:47;10.70;99.90
33994;DHT22;20673;48.980;8.138;2023-10-31T07:07:14;10.70;99.90
33994;DHT22;20673;48.980;8.138;2023-10-31T07:09:40;10.80;99.90
33994;DHT22;20673;48.980;8.138;2023-10-31T07:12:06;10.80;99.90
33994;DHT22;20673;48.980;8.138;2023-10-31T07:14:33;10.80;99.90
33994;DHT22;20673;48.980;8.138;2023-10-31T07:16:59;10.80;99.90
33994;DHT22;20673;48.980;8.138;2023-10-31T07:19:25;10.90;99.90
33994;DHT22;20673;48.980;8.138;2023-10-31T07:21:51;10.90;99.90
33994;DHT22;20673;48.980;8.138;2023-10-31T07:24:17;10.90;99.90
33994;DHT22;20673;48.980;8.138;2023-10-31T07:26:44;10.90;99.90
33994;DHT22;20673;48.980;8.138;2023-10-31T07:29:10;11.00;99.90
33994;DHT22;20673;48.980;8.138;2023-10-31T07:31:37;11.00;99.90
33994;DHT22;20673;48.980;8.138;2023-10-31T07:34:05;11.00;99.90
33994;DHT22;20673;48.980;8.138;2023-10-31T07:36:31;11.00;99.90
33994;DHT22;20673;48.980;8.138;2023-10-31T07:39:05;11.10;99.90
33994;DHT22;20673;48.980;8.138;2023-10-31T07:41:31;11.10;99.90
33994;DHT22;20673;48.980;8.138;2023-10-31T07:43:57;11.10;99.90
33994;DHT22;20673;48.980;8.138;2023-10-31T07:46:23;11.20;99.90
33994;DHT22;20673;48.980;8.138;2023-10-31T07:48:50;11.30;99.90
33994;DHT22;20673;48.980;8.138;2023-10-31T07:51:16;11.30;99.90
33994;DHT22;20673;48.980;8.138;2023-10-31T07:53:42;11.40;99.90
33994;DHT22;20673;48.980;8.138;2023-10-31T07:56:19;11.40;99.90
33994;DHT22;20673;48.980;8.138;2023-10-31T07:58:42;11.50;99.90
33994;DHT22;20673;48.980;8.138;2023-10-31T08:01:09;11.50;99.90
33994;DHT22;20673;48.980;8.138;2023-10-31T08:03:38;11.60;99.90
33994;DHT22;20673;48.980;8.138;2023-10-31T08:06:05;11.60;99.90
33994;DHT22;20673;48.980;8.138;2023-10-31T08:08:33;11.70;99.90
33994;DHT22;20673;48.980;8.138;2023-10-31T08:11:00;11.80;99.90
33994;DHT22;20673;48.980;8.138;2023-10-31T08:13:26;11.90;99.90
33994;DHT22;20673;48.980;8.138;2023-10-31T08:15:52;11.90;99.90
33994;DHT22;20673;48.980;8.138;2023-10-31T08:18:19;12.00;99.90
33994;DHT22;20673;48.980;8.138;2023-10-31T08:20:45;12.00;99.90
33994;DHT22;20673;48.980;8.138;2023-10-31T08:23:14;12.10;99.90
33994;DHT22;20673;48.980;8.138;2023-10-31T08:25:40;12.20;99.90
33994;DHT22;20673;48.980;8.138;2023-10-31T08:28:06;12.30;99.90
33994;DHT22;20673;48.980;8.138;2023-10-31T08:30:33;12.30;99.90
33994;DHT22;20673;48.980;8.138;2023-10-31T08:32:59;12.40;99.90
33994;DHT22;20673;48.980;8.138;2023-10-31T08:35:25;12.50;99.90
33994;DHT22;20673;48.980;8.138;2023-10-31T08:37:51;12.50;99.90
33994;DHT22;20673;48.980;8.138;2023-10-31T08:40:18;12.40;99.90
33994;DHT22;20673;48.980;8.138;2023-10-31T08:42:44;12.40;99.90
33994;DHT22;20673;48.980;8.138;2023-10-31T08:45:10;12.30;99.90
33994;DHT22;20673;48.980;8.138;2023-10-31T08:47:36;12.30;99.90
33994;DHT22;20673;48.980;8.138;2023-10-31T08:50:02;12.20;99.90
33994;DHT22;20673;48.980;8.138;2023-10-31T08:52:29;12.30;99.90
33994;DHT22;20673;48.980;8.138;2023-10-31T08:54:55;12.30;99.90
33994;DHT22;20673;48.980;8.138;2023-10-31T08:57:22;12.50;99.90
33994;DHT22;20673;48.980;8.138;2023-10-31T08:59:48;12.50;99.90
33994;DHT22;20673;48.980;8.138;2023-10-31T09:02:14;12.60;99.90
33994;DHT22;20673;48.980;8.138;2023-10-31T09:04:41;12.60;99.90
33994;DHT22;20673;48.980;8.138;2023-10-31T09:07:08;12.60;99.90
33994;DHT22;20673;48.980;8.138;2023-10-31T09:09:34;12.60;99.90
33994;DHT22;20673;48.980;8.138;2023-10-31T09:12:00;12.60;99.90
33994;DHT22;20673;48.980;8.138;2023-10-31T09:14:26;12.60;99.90
33994;DHT22;20673;48.980;8.138;2023-10-31T09:16:52;12.70;99.90
33994;DHT22;20673;48.980;8.138;2023-10-31T09:19:18;12.80;99.90
33994;DHT22;20673;48.980;8.138;2023-10-31T09:21:45;12.90;99.90
33994;DHT22;20673;48.980;8.138;2023-10-31T09:24:11;12.90;99.90
33994;DHT22;20673;48.980;8.138;2023-10-31T09:26:42;13.00;99.90
33994;DHT22;20673;48.980;8.138;2023-10-31T09:29:10;13.00;99.90
33994;DHT22;20673;48.980;8.138;2023-10-31T09:31:37;13.00;99.90
33994;DHT22;20673;48.980;8.138;2023-10-31T09:34:05;13.00;99.90
33994;DHT22;20673;48.980;8.138;2023-10-31T09:36:33;12.90;99.90
33994;DHT22;20673;48.980;8.138;2023-10-31T09:39:02;12.80;99.90
33994;DHT22;20673;48.980;8.138;2023-10-31T09:41:29;12.90;99.90
33994;DHT22;20673;48.980;8.138;2023-10-31T09:43:57;13.10;99.90
33994;DHT22;20673;48.980;8.138;2023-10-31T09:46:24;13.30;99.90
33994;DHT22;20673;48.980;8.138;2023-10-31T09:48:50;13.60;99.90
33994;DHT22;20673;48.980;8.138;2023-10-31T09:51:17;13.70;99.90
33994;DHT22;20673;48.980;8.138;2023-10-31T09:53:45;13.60;99.90
33994;DHT22;20673;48.980;8.138;2023-10-31T09:56:14;13.70;99.90
33994;DHT22;20673;48.980;8.138;2023-10-31T09:58:40;13.70;99.90
33994;DHT22;20673;48.980;8.138;2023-10-31T10:01:07;13.60;99.90
33994;DHT22;20673;48.980;8.138;2023-10-31T10:03:34;13.40;99.90
33994;DHT22;20673;48.980;8.138;2023-10-31T10:06:01;13.50;99.90
33994;DHT22;20673;48.980;8.138;2023-10-31T10:08:28;13.50;99.90
33994;DHT22;20673;48.980;8.138;2023-10-31T10:10:55;13.50;99.90
33994;DHT22;20673;48.980;8.138;2023-10-31T10:13:21;13.50;99.90
33994;DHT22;20673;48.980;8.138;2023-10-31T10:15:49;13.60;99.90
33994;DHT22;20673;48.980;8.138;2023-10-31T10:18:35;13.80;99.90
33994;DHT22;20673;48.980;8.138;2023-10-31T10:21:01;14.10;99.90
33994;DHT22;20673;48.980;8.138;2023-10-31T10:23:29;14.50;99.90
33994;DHT22;20673;48.980;8.138;2023-10-31T10:25:58;15.10;99.90
33994;DHT22;20673;48.980;8.138;2023-10-31T10:28:26;15.00;99.90
33994;DHT22;20673;48.980;8.138;2023-10-31T10:30:55;14.80;99.90
33994;DHT22;20673;48.980;8.138;2023-10-31T10:33:23;14.50;99.90
33994;DHT22;20673;48.980;8.138;2023-10-31T10:35:49;14.30;99.90
33994;DHT22;20673;48.980;8.138;2023-10-31T10:38:19;14.10;99.90
33994;DHT22;20673;48.980;8.138;2023-10-31T10:40:47;13.90;99.90
33994;DHT22;20673;48.980;8.138;2023-10-31T10:43:25;13.80;99.90
33994;DHT22;20673;48.980;8.138;2023-10-31T10:45:57;13.80;99.90
33994;DHT22;20673;48.980;8.138;2023-10-31T10:48:25;13.60;99.90
33994;DHT22;20673;48.980;8.138;2023-10-31T10:51:11;13.50;99.90
33994;DHT22;20673;48.980;8.138;2023-10-31T10:53:51;13.40;99.90
33994;DHT22;20673;48.980;8.138;2023-10-31T10:56:34;13.30;99.90
33994;DHT22;20673;48.980;8.138;2023-10-31T10:59:10;13.20;99.90
33994;DHT22;20673;48.980;8.138;2023-10-31T11:01:38;13.20;99.90
33994;DHT22;20673;48.980;8.138;2023-10-31T11:04:07;13.20;99.90
33994;DHT22;20673;48.980;8.138;2023-10-31T11:06:34;13.20;99.90
33994;DHT22;20673;48.980;8.138;2023-10-31T11:09:03;13.10;99.90
33994;DHT22;20673;48.980;8.138;2023-10-31T11:11:32;13.10;99.90
33994;DHT22;20673;48.980;8.138;2023-10-31T11:14:00;13.10;99.90
33994;DHT22;20673;48.980;8.138;2023-10-31T11:16:43;13.10;99.90
33994;DHT22;20673;48.980;8.138;2023-10-31T11:19:20;13.20;99.90
33994;DHT22;20673;48.980;8.138;2023-10-31T11:22:00;13.40;99.90
33994;DHT22;20673;48.980;8.138;2023-10-31T11:24:29;13.90;99.90
33994;DHT22;20673;48.980;8.138;2023-10-31T11:27:02;14.50;99.90
33994;DHT22;20673;48.980;8.138;2023-10-31T11:29:32;15.00;99.90
33994;DHT22;20673;48.980;8.138;2023-10-31T11:32:00;15.30;99.90
33994;DHT22;20673;48.980;8.138;2023-10-31T11:34:27;15.40;99.90
33994;DHT22;20673;48.980;8.138;2023-10-31T11:37:17;15.40;99.90
33994;DHT22;20673;48.980;8.138;2023-10-31T11:42:41;14.80;99.90
33994;DHT22;20673;48.980;8.138;2023-10-31T11:45:08;14.50;99.90
33994;DHT22;20673;48.980;8.138;2023-10-31T11:47:47;14.20;99.90
33994;DHT22;20673;48.980;8.138;2023-10-31T11:50:16;13.90;99.90
33994;DHT22;20673;48.980;8.138;2023-10-31T11:52:43;13.90;99.90
33994;DHT22;20673;48.980;8.138;2023-10-31T11:55:11;13.80;99.90
33994;DHT22;20673;48.980;8.138;2023-10-31T11:57:40;13.70;99.90
33994;DHT22;20673;48.980;8.138;2023-10-31T12:00:07;13.50;99.90
33994;DHT22;20673;48.980;8.138;2023-10-31T12:02:36;13.50;99.90
33994;DHT22;20673;48.980;8.138;2023-10-31T12:05:11;13.50;99.90
33994;DHT22;20673;48.980;8.138;2023-10-31T12:07:45;13.40;99.90
33994;DHT22;20673;48.980;8.138;2023-10-31T12:10:12;13.40;99.90
33994;DHT22;20673;48.980;8.138;2023-10-31T12:12:40;13.90;99.90
33994;DHT22;20673;48.980;8.138;2023-10-31T12:15:08;14.20;99.90
33994;DHT22;20673;48.980;8.138;2023-10-31T12:17:35;14.40;99.90
33994;DHT22;20673;48.980;8.138;2023-10-31T12:20:06;14.90;99.90
33994;DHT22;20673;48.980;8.138;2023-10-31T12:22:34;15.00;99.90
33994;DHT22;20673;48.980;8.138;2023-10-31T12:25:05;14.90;99.90
33994;DHT22;20673;48.980;8.138;2023-10-31T12:27:47;14.70;99.90
33994;DHT22;20673;48.980;8.138;2023-10-31T12:30:17;14.70;99.90
33994;DHT22;20673;48.980;8.138;2023-10-31T12:32:57;14.70;99.90
33994;DHT22;20673;48.980;8.138;2023-10-31T12:35:23;14.80;99.90
33994;DHT22;20673;48.980;8.138;2023-10-31T12:37:52;14.90;99.90
33994;DHT22;20673;48.980;8.138;2023-10-31T12:40:21;14.80;99.90
33994;DHT22;20673;48.980;8.138;2023-10-31T12:42:49;14.70;99.90
33994;DHT22;20673;48.980;8.138;2023-10-31T12:45:17;14.60;99.90
33994;DHT22;20673;48.980;8.138;2023-10-31T12:47:44;15.00;99.90
33994;DHT22;20673;48.980;8.138;2023-10-31T12:50:15;15.70;99.90
33994;DHT22;20673;48.980;8.138;2023-10-31T12:55:23;15.60;99.90
33994;DHT22;20673;48.980;8.138;2023-10-31T12:57:51;15.40;99.90
33994;DHT22;20673;48.980;8.138;2023-10-31T13:00:19;15.30;99.90
33994;DHT22;20673;48.980;8.138;2023-10-31T13:02:48;15.30;99.90
33994;DHT22;20673;48.980;8.138;2023-10-31T13:05:15;15.20;99.90
33994;DHT22;20673;48.980;8.138;2023-10-31T13:07:54;15.30;99.90
33994;DHT22;20673;48.980;8.138;2023-10-31T13:10:21;15.30;99.90
33994;DHT22;20673;48.980;8.138;2023-10-31T13:12:50;15.20;99.90
33994;DHT22;20673;48.980;8.138;2023-10-31T13:15:19;15.60;99.90
33994;DHT22;20673;48.980;8.138;2023-10-31T13:17:50;15.80;99.90
33994;DHT22;20673;48.980;8.138;2023-10-31T13:20:18;16.30;99.90
33994;DHT22;20673;48.980;8.138;2023-10-31T13:22:46;17.10;99.90
33994;DHT22;20673;48.980;8.138;2023-10-31T13:25:14;17.50;99.90
33994;DHT22;20673;48.980;8.138;2023-10-31T13:27:43;17.60;43.50
33994;DHT22;20673;48.980;8.138;2023-10-31T13:30:11;17.70;37.10
33994;DHT22;20673;48.980;8.138;2023-10-31T13:32:38;18.20;1.00
33994;DHT22;20673;48.980;8.138;2023-10-31T13:35:05;18.60;1.00
33994;DHT22;20673;48.980;8.138;2023-10-31T13:37:31;18.60;1.00
33994;DHT22;20673;48.980;8.138;2023-10-31T13:39:59;18.60;1.00
33994;DHT22;20673;48.980;8.138;2023-10-31T13:42:25;18.30;1.00
33994;DHT22;20673;48.980;8.138;2023-10-31T13:44:51;17.30;1.00
33994;DHT22;20673;48.980;8.138;2023-10-31T13:47:17;16.80;28.50
33994;DHT22;20673;48.980;8.138;2023-10-31T13:49:43;16.30;42.50
33994;DHT22;20673;48.980;8.138;2023-10-31T13:52:10;15.80;89.70
33994;DHT22;20673;48.980;8.138;2023-10-31T13:54:37;15.60;99.90
33994;DHT22;20673;48.980;8.138;2023-10-31T13:57:03;15.40;99.90
33994;DHT22;20673;48.980;8.138;2023-10-31T13:59:29;15.50;96.20
33994;DHT22;20673;48.980;8.138;2023-10-31T14:01:57;15.40;91.10
33994;DHT22;20673;48.980;8.138;2023-10-31T14:04:23;15.20;93.70
33994;DHT22;20673;48.980;8.138;2023-10-31T14:06:50;15.10;83.60
33994;DHT22;20673;48.980;8.138;2023-10-31T14:09:17;15.00;90.00
33994;DHT22;20673;48.980;8.138;2023-10-31T14:11:43;15.00;96.70
33994;DHT22;20673;48.980;8.138;2023-10-31T14:14:09;14.90;99.90
33994;DHT22;20673;48.980;8.138;2023-10-31T14:16:36;14.80;99.90
33994;DHT22;20673;48.980;8.138;2023-10-31T14:19:04;14.60;99.90
33994;DHT22;20673;48.980;8.138;2023-10-31T14:21:33;14.60;99.90
33994;DHT22;20673;48.980;8.138;2023-10-31T14:24:00;14.50;99.90
33994;DHT22;20673;48.980;8.138;2023-10-31T14:26:30;14.50;99.90
33994;DHT22;20673;48.980;8.138;2023-10-31T14:28:58;14.30;99.90
33994;DHT22;20673;48.980;8.138;2023-10-31T14:31:25;14.20;99.90
33994;DHT22;20673;48.980;8.138;2023-10-31T14:33:51;14.10;99.90
33994;DHT22;20673;48.980;8.138;2023-10-31T14:36:17;14.10;99.90
33994;DHT22;20673;48.980;8.138;2023-10-31T14:38:43;14.00;99.90
33994;DHT22;20673;48.980;8.138;2023-10-31T14:41:09;14.00;99.90
33994;DHT22;20673;48.980;8.138;2023-10-31T14:43:36;13.90;99.90
33994;DHT22;20673;48.980;8.138;2023-10-31T14:46:03;13.90;99.90
33994;DHT22;20673;48.980;8.138;2023-10-31T14:48:30;13.80;99.90
33994;DHT22;20673;48.980;8.138;2023-10-31T14:50:56;13.80;99.90
33994;DHT22;20673;48.980;8.138;2023-10-31T14:53:25;13.80;99.90
33994;DHT22;20673;48.980;8.138;2023-10-31T14:55:51;13.70;99.90
33994;DHT22;20673;48.980;8.138;2023-10-31T14:58:17;13.70;99.90
33994;DHT22;20673;48.980;8.138;2023-10-31T15:00:43;13.70;99.90
33994;DHT22;20673;48.980;8.138;2023-10-31T15:03:09;13.70;99.90
33994;DHT22;20673;48.980;8.138;2023-10-31T15:05:35;13.70;99.90
33994;DHT22;20673;48.980;8.138;2023-10-31T15:08:02;13.70;99.90
33994;DHT22;20673;48.980;8.138;2023-10-31T15:10:28;13.80;99.90
33994;DHT22;20673;48.980;8.138;2023-10-31T15:12:54;13.80;99.90
33994;DHT22;20673;48.980;8.138;2023-10-31T15:15:21;13.90;99.90
33994;DHT22;20673;48.980;8.138;2023-10-31T15:17:47;13.80;99.90
33994;DHT22;20673;48.980;8.138;2023-10-31T15:20:13;13.80;99.90
33994;DHT22;20673;48.980;8.138;2023-10-31T15:22:41;13.70;99.90
33994;DHT22;20673;48.980;8.138;2023-10-31T15:25:09;13.70;99.90
33994;DHT22;20673;48.980;8.138;2023-10-31T15:27:36;13.60;99.90
33994;DHT22;20673;48.980;8.138;2023-10-31T15:30:07;13.60;99.90
33994;DHT22;20673;48.980;8.138;2023-10-31T15:32:35;13.70;99.90
33994;DHT22;20673;48.980;8.138;2023-10-31T15:35:04;13.60;99.90
33994;DHT22;20673;48.980;8.138;2023-10-31T15:37:31;13.60;99.90